Aviation Digital Data Service (ADDS)

Output produced by TAFs form (1635 UTC 24 April 2014)
found at http://aviationweather.gov/adds/tafs/
 
KFMN 241128Z 2412/2512 VRB06KT P6SM SKC 
     FM241800 29010KT P6SM SCT250 
     FM250200 VRB06KT P6SM SCT250 
     FM250700 09006KT P6SM SCT250